createdAt,value
2023-02-17T00:00:40.079Z,25.77
2023-02-17T00:03:09.533Z,26.33
2023-02-17T00:05:41.633Z,25.88
2023-02-17T00:08:11.234Z,25.45
2023-02-17T00:10:43.310Z,26.75
2023-02-17T00:13:12.748Z,26.35
2023-02-17T00:15:42.309Z,25.63
2023-02-17T00:18:11.844Z,24.88
2023-02-17T00:20:41.402Z,26.67
2023-02-17T00:23:11.033Z,25.15
2023-02-17T00:25:45.899Z,24.27
2023-02-17T00:28:15.345Z,24.30
2023-02-17T00:30:44.892Z,24.80
2023-02-17T00:33:14.397Z,25.67
2023-02-17T00:35:44.287Z,24.75
2023-02-17T00:38:13.791Z,26.10
2023-02-17T00:40:46.089Z,25.10
2023-02-17T00:43:15.800Z,25.15
2023-02-17T00:45:45.303Z,25.75
2023-02-17T00:48:14.836Z,25.75
2023-02-17T00:50:44.385Z,26.65
2023-02-17T00:53:13.848Z,26.10
2023-02-17T00:55:45.931Z,26.80
2023-02-17T00:58:15.423Z,27.10
2023-02-17T01:00:45.001Z,27.40
2023-02-17T01:03:14.464Z,26.35
2023-02-17T01:05:44.502Z,25.45
2023-02-17T01:08:14.152Z,25.40
2023-02-17T01:10:47.347Z,25.15
2023-02-17T01:13:17.283Z,27.20
2023-02-17T01:15:49.000Z,26.23
2023-02-17T01:18:18.552Z,24.92
2023-02-17T01:20:48.094Z,25.52
2023-02-17T01:23:17.670Z,24.88
2023-02-17T01:25:50.792Z,24.73
2023-02-17T01:28:22.377Z,24.92
2023-02-17T01:30:52.143Z,24.17
2023-02-17T01:33:21.581Z,24.48
2023-02-17T01:35:51.132Z,23.95
2023-02-17T01:38:20.653Z,25.42
2023-02-17T01:40:52.923Z,25.15
2023-02-17T01:43:28.754Z,25.00
2023-02-17T01:45:59.117Z,25.50
2023-02-17T01:48:29.652Z,24.83
2023-02-17T01:51:02.559Z,25.00
2023-02-17T01:53:34.421Z,23.70
2023-02-17T01:56:06.864Z,25.00
2023-02-17T01:58:36.614Z,23.45
2023-02-17T02:01:06.516Z,24.30
2023-02-17T02:03:36.506Z,23.67
2023-02-17T02:06:07.916Z,23.90
2023-02-17T02:08:41.498Z,24.50
2023-02-17T02:11:13.559Z,23.38
2023-02-17T02:13:43.002Z,24.13
2023-02-17T02:16:15.758Z,23.42
2023-02-17T02:18:50.285Z,23.30
2023-02-17T02:21:52.053Z,23.17
2023-02-17T02:24:28.009Z,21.50
2023-02-17T02:27:32.306Z,21.63
2023-02-17T02:30:31.799Z,21.58
2023-02-17T02:33:06.863Z,20.77
2023-02-17T02:35:39.823Z,21.95
2023-02-17T02:38:12.375Z,21.92
2023-02-17T02:40:43.874Z,21.38
2023-02-17T02:43:15.170Z,19.50
2023-02-17T02:45:44.783Z,18.00
2023-02-17T02:48:16.864Z,16.45
2023-02-17T02:51:03.862Z,14.55
2023-02-17T02:53:58.783Z,14.15
2023-02-17T02:56:38.833Z,14.57
2023-02-17T02:59:13.096Z,14.75
2023-02-17T03:01:46.754Z,14.50
2023-02-17T03:04:21.625Z,13.98
2023-02-17T03:06:52.035Z,14.52
2023-02-17T03:09:23.877Z,14.05
2023-02-17T03:11:53.389Z,13.30
2023-02-17T03:14:23.459Z,13.90
2023-02-17T03:16:55.748Z,12.85
2023-02-17T03:19:27.948Z,13.02
2023-02-17T03:21:58.981Z,12.63
2023-02-17T03:26:57.717Z,12.70
2023-02-17T03:29:27.294Z,13.38
2023-02-17T03:31:56.835Z,13.48
2023-02-17T03:34:28.963Z,13.05
2023-02-17T03:37:01.131Z,13.07
2023-02-17T03:39:31.639Z,12.85
2023-02-17T03:42:02.248Z,12.90
2023-02-17T03:44:31.722Z,12.95
2023-02-17T03:47:01.194Z,12.40
2023-02-17T03:49:33.246Z,12.80
2023-02-17T03:52:02.725Z,12.18
2023-02-17T03:54:34.170Z,11.57
2023-02-17T03:57:03.867Z,11.35
2023-02-17T03:59:33.366Z,11.73
2023-02-17T04:02:02.804Z,10.90
2023-02-17T04:04:36.313Z,11.65
2023-02-17T04:07:05.832Z,11.90
2023-02-17T04:09:35.320Z,10.90
2023-02-17T04:12:04.788Z,11.05
2023-02-17T04:14:34.266Z,10.50
2023-02-17T04:17:03.687Z,10.27
2023-02-17T04:19:35.722Z,10.25
2023-02-17T04:22:08.900Z,9.90
2023-02-17T04:24:38.722Z,9.90
2023-02-17T04:27:09.018Z,10.00
2023-02-17T04:29:38.485Z,9.98
2023-02-17T04:32:07.972Z,10.20
2023-02-17T04:34:40.181Z,10.23
2023-02-17T04:37:09.634Z,9.43
2023-02-17T04:39:39.145Z,9.02
2023-02-17T04:42:08.762Z,9.30
2023-02-17T04:44:38.211Z,8.77
2023-02-17T04:47:07.754Z,8.00
2023-02-17T04:49:39.816Z,7.93
2023-02-17T04:52:09.249Z,7.30
2023-02-17T04:54:39.102Z,7.53
2023-02-17T04:57:08.565Z,8.32
2023-02-17T04:59:38.170Z,8.07
2023-02-17T05:02:07.653Z,8.10
2023-02-17T05:04:39.695Z,8.25
2023-02-17T05:07:09.248Z,8.00
2023-02-17T05:09:38.745Z,7.93
2023-02-17T05:12:08.361Z,7.68
2023-02-17T05:14:38.002Z,8.73
2023-02-17T05:17:07.431Z,8.65
2023-02-17T05:19:37.075Z,8.18
2023-02-17T05:22:09.096Z,8.30
2023-02-17T05:24:38.999Z,7.97
2023-02-17T05:27:08.515Z,8.07
2023-02-17T05:29:38.029Z,8.00
2023-02-17T05:32:07.523Z,8.30
2023-02-17T05:34:37.051Z,7.13
2023-02-17T05:37:09.102Z,6.63
2023-02-17T05:39:38.577Z,6.50
2023-02-17T05:42:08.184Z,5.90
2023-02-17T05:44:37.709Z,5.45
2023-02-17T05:47:07.323Z,5.30
2023-02-17T05:49:36.775Z,5.45
2023-02-17T05:52:08.829Z,4.80
2023-02-17T05:54:38.241Z,4.53
2023-02-17T05:57:07.701Z,4.70
2023-02-17T05:59:37.158Z,4.40
2023-02-17T06:02:06.716Z,4.47
2023-02-17T06:04:36.280Z,4.40
2023-02-17T06:07:05.780Z,4.53
2023-02-17T06:09:37.826Z,4.50
2023-02-17T06:12:08.032Z,4.22
2023-02-17T06:14:37.495Z,4.13
2023-02-17T06:17:06.960Z,4.40
2023-02-17T06:19:36.436Z,4.30
2023-02-17T06:22:05.902Z,3.95
2023-02-17T06:24:37.944Z,3.67
2023-02-17T06:27:07.403Z,3.90
2023-02-17T06:29:36.964Z,3.70
2023-02-17T06:32:06.587Z,4.00
2023-02-17T06:34:36.057Z,3.60
2023-02-17T06:37:05.520Z,4.07
2023-02-17T06:39:37.789Z,3.90
2023-02-17T06:42:07.337Z,4.15
2023-02-17T06:44:36.803Z,3.85
2023-02-17T06:47:06.354Z,3.58
2023-02-17T06:49:35.839Z,3.85
2023-02-17T06:52:05.277Z,4.00
2023-02-17T06:54:34.738Z,3.58
2023-02-17T06:57:06.760Z,3.70
2023-02-17T06:59:36.233Z,3.60
2023-02-17T07:02:05.822Z,3.47
2023-02-17T07:04:35.473Z,3.80
2023-02-17T07:07:04.894Z,3.53
2023-02-17T07:09:34.402Z,3.65
2023-02-17T07:12:06.821Z,3.38
2023-02-17T07:14:36.775Z,3.65
2023-02-17T07:17:06.253Z,3.38
2023-02-17T07:19:35.751Z,3.92
2023-02-17T07:22:05.260Z,3.72
2023-02-17T07:24:35.067Z,3.80
2023-02-17T07:27:10.616Z,3.70
2023-02-17T07:29:40.381Z,3.90
2023-02-17T07:32:09.911Z,3.60
2023-02-17T07:34:40.245Z,4.65
2023-02-17T07:37:10.414Z,3.80
2023-02-17T07:39:39.895Z,4.70
2023-02-17T07:42:12.751Z,3.95
2023-02-17T07:44:42.245Z,4.00
2023-02-17T07:47:11.682Z,4.50
2023-02-17T07:49:41.156Z,4.60
2023-02-17T07:52:10.657Z,4.75
2023-02-17T07:54:40.203Z,5.40
2023-02-17T07:57:12.238Z,4.72
2023-02-17T07:59:41.732Z,5.18
2023-02-17T08:02:12.903Z,4.72
2023-02-17T08:04:42.414Z,4.88
2023-02-17T08:07:11.865Z,5.22
2023-02-17T08:10:05.683Z,5.10
2023-02-17T08:13:05.261Z,5.32
2023-02-17T08:15:35.918Z,5.13
2023-02-17T08:18:06.496Z,5.32
2023-02-17T08:20:36.004Z,5.60
2023-02-17T08:23:06.467Z,5.40
2023-02-17T08:25:36.419Z,5.22
2023-02-17T08:28:09.252Z,5.30
2023-02-17T08:30:39.236Z,5.00
2023-02-17T08:33:08.867Z,5.25
2023-02-17T08:35:38.369Z,5.15
2023-02-17T08:38:07.850Z,5.20
2023-02-17T08:40:37.368Z,5.15
2023-02-17T08:43:09.891Z,5.00
2023-02-17T08:45:39.375Z,5.53
2023-02-17T08:48:09.030Z,5.95
2023-02-17T08:50:38.526Z,5.05
2023-02-17T08:53:07.974Z,5.63
2023-02-17T08:55:48.580Z,5.28
2023-02-17T09:00:50.475Z,5.00
2023-02-17T09:03:19.938Z,5.25
2023-02-17T09:05:50.546Z,5.50
2023-02-17T09:08:20.667Z,5.35
2023-02-17T09:10:50.368Z,5.57
2023-02-17T09:13:22.616Z,5.20
2023-02-17T09:15:54.068Z,5.15
2023-02-17T09:18:23.857Z,4.95
2023-02-17T09:20:53.410Z,4.78
2023-02-17T09:23:23.146Z,4.80
2023-02-17T09:25:52.615Z,4.80
2023-02-17T09:28:24.715Z,4.53
2023-02-17T09:30:54.399Z,4.75
2023-02-17T09:33:25.751Z,4.75
2023-02-17T09:35:56.337Z,4.40
2023-02-17T09:38:25.941Z,3.72
2023-02-17T09:40:55.427Z,3.92
2023-02-17T09:43:29.490Z,3.95
2023-02-17T09:46:00.965Z,3.92
2023-02-17T09:48:31.544Z,3.00
2023-02-17T09:51:02.697Z,2.97
2023-02-17T09:56:05.099Z,3.47
2023-02-17T09:58:39.328Z,4.40
2023-02-17T10:01:12.172Z,4.45
2023-02-17T10:03:42.973Z,2.50
2023-02-17T10:06:15.991Z,2.55
2023-02-17T10:08:49.652Z,2.33
2023-02-17T10:11:23.236Z,2.50
2023-02-17T10:13:55.569Z,2.70
2023-02-17T10:16:26.935Z,2.20
2023-02-17T10:18:59.484Z,2.42
2023-02-17T10:21:30.796Z,2.17
2023-02-17T10:24:00.424Z,2.15
2023-02-17T10:26:45.308Z,2.20
2023-02-17T10:29:23.915Z,2.35
2023-02-17T10:31:57.658Z,2.33
2023-02-17T10:34:38.280Z,2.20
2023-02-17T10:37:09.157Z,2.38
2023-02-17T10:39:46.802Z,2.20
2023-02-17T10:42:19.828Z,1.92
2023-02-17T10:44:52.117Z,1.90
2023-02-17T10:47:21.661Z,2.05
2023-02-17T10:49:53.105Z,2.08
2023-02-17T10:52:24.951Z,2.35
2023-02-17T10:54:57.672Z,2.22
2023-02-17T10:57:27.612Z,2.13
2023-02-17T10:59:59.746Z,2.38
2023-02-17T11:02:38.240Z,1.80
2023-02-17T11:05:08.851Z,1.98
2023-02-17T11:07:39.438Z,1.90
2023-02-17T11:10:25.661Z,3.13
2023-02-17T11:12:56.034Z,1.95
2023-02-17T11:15:29.986Z,1.95
2023-02-17T11:17:59.685Z,1.90
2023-02-17T11:20:32.373Z,2.67
2023-02-17T11:23:11.056Z,2.50
2023-02-17T11:25:40.624Z,2.20
2023-02-17T11:28:14.186Z,2.10
2023-02-17T11:30:54.656Z,2.30
2023-02-17T11:33:26.128Z,2.10
2023-02-17T11:35:56.024Z,2.28
2023-02-17T11:38:27.145Z,1.92
2023-02-17T11:43:28.634Z,2.10
2023-02-17T11:48:55.151Z,1.90
2023-02-17T11:51:26.162Z,1.90
2023-02-17T11:56:33.504Z,2.10
2023-02-17T11:59:11.268Z,1.95
2023-02-17T12:01:58.999Z,1.90
2023-02-17T12:04:29.373Z,1.90
2023-02-17T12:07:19.169Z,1.80
2023-02-17T12:09:59.088Z,1.90
2023-02-17T12:12:32.828Z,1.90
2023-02-17T12:15:06.613Z,2.10
2023-02-17T12:17:45.876Z,1.83
2023-02-17T12:20:29.018Z,1.85
2023-02-17T12:23:03.804Z,1.80
2023-02-17T12:25:34.281Z,1.70
2023-02-17T12:28:12.028Z,1.92
2023-02-17T12:30:50.094Z,1.95
2023-02-17T12:33:33.882Z,1.60
2023-02-17T12:36:05.469Z,1.70
2023-02-17T12:38:36.260Z,1.70
2023-02-17T12:41:08.396Z,1.52
2023-02-17T12:43:40.783Z,1.85
2023-02-17T12:46:16.554Z,1.70
2023-02-17T12:48:50.153Z,1.60
2023-02-17T12:51:21.876Z,1.70
2023-02-17T12:53:53.223Z,1.50
2023-02-17T12:56:44.202Z,1.80
2023-02-17T12:59:15.751Z,1.75
2023-02-17T13:01:57.832Z,1.70
2023-02-17T13:04:30.139Z,1.48
2023-02-17T13:07:06.107Z,1.80
2023-02-17T13:09:37.238Z,1.70
2023-02-17T13:12:17.938Z,1.70
2023-02-17T13:14:47.977Z,1.40
2023-02-17T13:17:28.770Z,1.60
2023-02-17T13:20:27.357Z,1.80
2023-02-17T13:23:10.157Z,1.60
2023-02-17T13:25:39.770Z,1.83
2023-02-17T13:28:36.243Z,1.35
2023-02-17T13:31:19.946Z,1.70
2023-02-17T13:33:51.890Z,1.77
2023-02-17T13:36:39.574Z,2.40
2023-02-17T13:39:29.502Z,1.80
2023-02-17T13:42:00.521Z,1.60
2023-02-17T13:47:09.204Z,1.70
2023-02-17T13:49:38.667Z,1.80
2023-02-17T13:52:19.719Z,1.50
2023-02-17T13:54:56.231Z,1.50
2023-02-17T13:57:28.725Z,1.50
2023-02-17T14:00:11.849Z,1.30
2023-02-17T14:02:42.075Z,1.60
2023-02-17T14:05:18.373Z,1.53
2023-02-17T14:07:53.331Z,1.90
2023-02-17T14:10:25.025Z,3.55
2023-02-17T14:12:54.638Z,2.00
2023-02-17T14:15:25.362Z,1.73
2023-02-17T14:17:54.955Z,1.92
2023-02-17T14:20:32.379Z,1.63
2023-02-17T14:23:06.569Z,2.00
2023-02-17T14:25:37.519Z,1.95
2023-02-17T14:28:07.350Z,2.00
2023-02-17T14:30:38.733Z,2.10
2023-02-17T14:33:09.017Z,2.00
2023-02-17T14:35:39.554Z,1.67
2023-02-17T14:38:23.014Z,1.73
2023-02-17T14:40:57.549Z,1.40
2023-02-17T14:43:27.389Z,1.42
2023-02-17T14:45:56.876Z,1.35
2023-02-17T14:48:27.926Z,1.50
2023-02-17T14:50:58.846Z,1.40
2023-02-17T14:53:32.757Z,1.98
2023-02-17T14:56:03.269Z,1.50
2023-02-17T14:58:32.876Z,1.67
2023-02-17T15:01:02.402Z,1.50
2023-02-17T15:03:34.808Z,2.10
2023-02-17T15:06:12.677Z,2.30
2023-02-17T15:08:45.425Z,1.60
2023-02-17T15:11:19.650Z,1.95
2023-02-17T15:13:49.298Z,1.85
2023-02-17T15:16:19.148Z,1.60
2023-02-17T15:18:54.017Z,1.50
2023-02-17T15:21:28.073Z,1.50
2023-02-17T15:24:02.586Z,1.50
2023-02-17T15:26:32.927Z,2.40
2023-02-17T15:29:02.432Z,1.33
2023-02-17T15:31:32.680Z,1.13
2023-02-17T15:34:02.809Z,1.20
2023-02-17T15:36:32.889Z,1.42
2023-02-17T15:39:05.076Z,1.40
2023-02-17T15:41:34.578Z,1.60
2023-02-17T15:44:05.813Z,1.30
2023-02-17T15:46:36.432Z,1.33
2023-02-17T15:49:05.964Z,1.65
2023-02-17T15:51:35.461Z,1.65
2023-02-17T15:54:07.685Z,1.40
2023-02-17T15:56:43.236Z,1.38
2023-02-17T15:59:15.257Z,1.42
2023-02-17T16:01:45.258Z,1.50
2023-02-17T16:04:14.924Z,1.60
2023-02-17T16:06:44.701Z,1.42
2023-02-17T16:09:16.907Z,1.50
2023-02-17T16:11:49.623Z,1.40
2023-02-17T16:14:26.046Z,1.35
2023-02-17T16:16:55.475Z,1.55
2023-02-17T16:19:24.994Z,1.98
2023-02-17T16:21:54.491Z,2.28
2023-02-17T16:24:26.567Z,1.70
2023-02-17T16:26:56.414Z,1.98
2023-02-17T16:29:25.908Z,1.83
2023-02-17T16:31:55.978Z,1.70
2023-02-17T16:34:26.279Z,2.23
2023-02-17T16:36:56.878Z,1.80
2023-02-17T16:39:28.936Z,1.88
2023-02-17T16:41:58.685Z,1.90
2023-02-17T16:44:28.141Z,1.40
2023-02-17T16:46:59.579Z,1.80
2023-02-17T16:49:32.642Z,2.80
2023-02-17T16:52:02.337Z,1.60
2023-02-17T16:54:35.691Z,1.80
2023-02-17T16:57:05.477Z,1.80
2023-02-17T16:59:34.950Z,1.70
2023-02-17T17:02:04.416Z,1.80
2023-02-17T17:04:33.940Z,1.60
2023-02-17T17:07:03.407Z,1.95
2023-02-17T17:09:35.444Z,2.10
2023-02-17T17:12:04.902Z,2.10
2023-02-17T17:14:34.391Z,2.42
2023-02-17T17:17:04.340Z,2.13
2023-02-17T17:19:33.793Z,2.20
2023-02-17T17:22:03.452Z,2.55
2023-02-17T17:24:35.476Z,2.40
2023-02-17T17:27:04.944Z,2.17
2023-02-17T17:29:34.402Z,2.00
2023-02-17T17:32:04.051Z,2.08
2023-02-17T17:34:33.513Z,2.03
2023-02-17T17:37:02.979Z,2.33
2023-02-17T17:39:35.026Z,2.70
2023-02-17T17:42:04.495Z,2.30
2023-02-17T17:44:33.982Z,2.30
2023-02-17T17:47:03.804Z,2.28
2023-02-17T17:49:33.602Z,2.17
2023-02-17T17:52:03.057Z,2.45
2023-02-17T17:54:36.195Z,2.28
2023-02-17T17:57:05.770Z,2.30
2023-02-17T17:59:35.219Z,2.60
2023-02-17T18:02:04.689Z,2.50
2023-02-17T18:04:34.163Z,2.78
2023-02-17T18:07:03.861Z,3.05
2023-02-17T18:09:38.915Z,2.55
2023-02-17T18:12:11.210Z,2.83
2023-02-17T18:14:41.869Z,2.70
2023-02-17T18:17:11.396Z,2.60
2023-02-17T18:19:40.923Z,2.65
2023-02-17T18:22:10.901Z,3.10
2023-02-17T18:24:42.932Z,2.83
2023-02-17T18:27:12.400Z,2.53
2023-02-17T18:29:41.847Z,3.13
2023-02-17T18:32:11.522Z,3.55
2023-02-17T18:34:41.046Z,2.97
2023-02-17T18:37:10.602Z,3.08
2023-02-17T18:39:40.048Z,2.78
2023-02-17T18:42:12.211Z,4.78
2023-02-17T18:44:41.693Z,10.07
2023-02-17T18:47:11.168Z,4.95
2023-02-17T18:49:40.635Z,4.35
2023-02-17T18:52:10.097Z,3.40
2023-02-17T18:54:44.224Z,3.50
2023-02-17T18:57:16.301Z,3.78
2023-02-17T18:59:46.045Z,4.00
2023-02-17T19:02:15.603Z,3.30
2023-02-17T19:04:45.042Z,3.67
2023-02-17T19:07:14.539Z,3.30
2023-02-17T19:09:44.916Z,3.28
2023-02-17T19:12:16.953Z,4.30
2023-02-17T19:14:46.480Z,4.20
2023-02-17T19:17:18.383Z,4.40
2023-02-17T19:19:48.054Z,4.35
2023-02-17T19:22:17.537Z,4.10
2023-02-17T19:24:47.099Z,5.20
2023-02-17T19:27:19.208Z,4.75
2023-02-17T19:29:48.865Z,4.07
2023-02-17T19:32:18.398Z,4.50
2023-02-17T19:34:47.884Z,4.30
2023-02-17T19:37:17.376Z,4.47
2023-02-17T19:39:46.854Z,4.10
2023-02-17T19:42:18.877Z,4.30
2023-02-17T19:44:48.452Z,3.65
2023-02-17T19:47:17.962Z,4.25
2023-02-17T19:49:47.414Z,3.80
2023-02-17T19:52:17.061Z,3.80
2023-02-17T19:54:46.870Z,4.03
2023-02-17T19:57:20.047Z,4.00
2023-02-17T19:59:49.479Z,4.18
2023-02-17T20:02:19.091Z,3.92
2023-02-17T20:04:48.612Z,4.00
2023-02-17T20:07:18.072Z,4.03
2023-02-17T20:09:47.594Z,3.95
2023-02-17T20:12:21.676Z,4.10
2023-02-17T20:14:51.177Z,3.92
2023-02-17T20:17:20.633Z,3.75
2023-02-17T20:19:50.113Z,3.92
2023-02-17T20:22:19.597Z,4.70
2023-02-17T20:24:49.060Z,3.80
2023-02-17T20:27:21.558Z,4.18
2023-02-17T20:29:51.171Z,5.40
2023-02-17T20:32:20.761Z,4.57
2023-02-17T20:34:52.594Z,4.72
2023-02-17T20:37:22.195Z,4.75
2023-02-17T20:39:51.679Z,4.22
2023-02-17T20:42:23.743Z,4.20
2023-02-17T20:44:54.518Z,4.47
2023-02-17T20:47:24.001Z,4.22
2023-02-17T20:49:53.486Z,4.13
2023-02-17T20:52:22.954Z,4.13
2023-02-17T20:54:52.470Z,4.00
2023-02-17T20:57:24.507Z,4.45
2023-02-17T20:59:53.985Z,4.15
2023-02-17T21:02:23.540Z,4.40
2023-02-17T21:04:53.391Z,4.53
2023-02-17T21:07:22.868Z,4.35
2023-02-17T21:09:52.342Z,5.05
2023-02-17T21:12:24.408Z,4.75
2023-02-17T21:14:53.919Z,5.60
2023-02-17T21:17:23.380Z,5.50
2023-02-17T21:19:52.830Z,5.15
2023-02-17T21:22:22.371Z,5.43
2023-02-17T21:24:52.051Z,5.30
2023-02-17T21:27:24.119Z,5.00
2023-02-17T21:29:53.576Z,4.90
2023-02-17T21:32:23.128Z,5.90
2023-02-17T21:34:52.630Z,4.95
2023-02-17T21:37:22.275Z,5.15
2023-02-17T21:39:51.781Z,5.30
2023-02-17T21:42:48.431Z,5.15
2023-02-17T21:45:15.620Z,4.93
2023-02-17T21:47:45.747Z,5.10
2023-02-17T21:50:15.429Z,5.30
2023-02-17T21:52:44.916Z,4.95
2023-02-17T21:55:14.380Z,4.60
2023-02-17T21:57:46.483Z,4.80
2023-02-17T22:00:17.817Z,5.07
2023-02-17T22:02:47.353Z,4.80
2023-02-17T22:05:17.170Z,4.30
2023-02-17T22:07:46.641Z,5.15
2023-02-17T22:10:16.657Z,4.55
2023-02-17T22:12:48.704Z,4.05
2023-02-17T22:15:18.815Z,4.32
2023-02-17T22:17:48.279Z,3.90
2023-02-17T22:20:19.305Z,4.13
2023-02-17T22:25:18.123Z,3.90
2023-02-17T22:27:50.608Z,3.58
2023-02-17T22:30:20.488Z,3.78
2023-02-17T22:32:49.911Z,3.72
2023-02-17T22:35:20.987Z,3.95
2023-02-17T22:37:50.497Z,3.67
2023-02-17T22:40:20.445Z,3.60
2023-02-17T22:42:52.521Z,3.28
2023-02-17T22:45:22.015Z,3.25
2023-02-17T22:47:51.469Z,3.30
2023-02-17T22:50:20.969Z,3.40
2023-02-17T22:52:50.482Z,3.45
2023-02-17T22:55:20.085Z,3.63
2023-02-17T22:57:52.147Z,3.75
2023-02-17T23:00:22.013Z,3.60
2023-02-17T23:02:54.260Z,3.95
2023-02-17T23:05:23.703Z,3.70
2023-02-17T23:07:54.200Z,3.95
2023-02-17T23:10:23.669Z,3.80
2023-02-17T23:12:55.745Z,3.63
2023-02-17T23:15:39.294Z,3.80
2023-02-17T23:18:09.392Z,4.00
2023-02-17T23:20:40.236Z,3.90
2023-02-17T23:23:09.832Z,3.88
2023-02-17T23:25:41.199Z,3.63
2023-02-17T23:28:13.255Z,3.60
2023-02-17T23:30:43.509Z,3.67
2023-02-17T23:33:13.060Z,3.70
2023-02-17T23:35:44.845Z,3.60
2023-02-17T23:38:14.550Z,3.47
2023-02-17T23:40:44.024Z,3.28
2023-02-17T23:43:16.140Z,3.58
2023-02-17T23:45:45.572Z,3.30
2023-02-17T23:48:15.220Z,3.33
2023-02-17T23:50:44.706Z,3.53
2023-02-17T23:53:15.421Z,3.30
2023-02-17T23:55:44.895Z,3.60
2023-02-17T23:58:17.888Z,3.20
